Time;durP1;ratioP1;P1;durP2;ratioP2;P2;SDS_P1;SDS_P2;PMS_P1;PMS_P2;Temp;Humidity;BMP_temperature;BMP_pressure;BME280_temperature;BME280_humidity;BME280_pressure;Samples;Min_cycle;Max_cycle;Signal;HPM_P1;HPM_P2
2024/01/13 00:01:03;;;;;;;30.30;17.70;;;;;;;0.40;94.69;101933.34;5053612;28;20051;-73
2024/01/13 00:04:06;;;;;;;28.75;18.15;;;;;;;0.40;94.65;101927.34;5053602;28;20521;-72
2024/01/13 00:07:09;;;;;;;;;;;;;;;0.37;94.45;101927.31;5053567;28;20409;-72
2024/01/13 00:10:13;;;;;;;28.30;17.38;;;;;;;0.28;95.35;101929.75;5052728;28;19919;-72
2024/01/13 00:13:16;;;;;;;28.75;18.95;;;;;;;0.33;94.89;101916.13;5053205;28;20055;-72
2024/01/13 00:16:19;;;;;;;31.85;18.17;;;;;;;0.31;95.58;101914.38;5053382;28;20166;-72
2024/01/13 00:19:23;;;;;;;29.42;17.67;;;;;;;0.36;95.24;101905.88;5052917;28;20470;-72
2024/01/13 00:22:26;;;;;;;29.95;19.05;;;;;;;0.35;94.85;101901.56;5053195;28;20094;-72
2024/01/13 00:25:29;;;;;;;27.67;16.92;;;;;;;0.39;94.61;101894.75;5052047;28;20052;-72
2024/01/13 00:28:33;;;;;;;27.38;17.73;;;;;;;0.36;94.68;101900.72;5052687;28;20044;-72
2024/01/13 00:31:36;;;;;;;29.83;18.90;;;;;;;0.39;94.57;101893.03;5062767;28;20059;-72
2024/01/13 00:34:39;;;;;;;33.22;20.25;;;;;;;0.36;94.89;101879.28;5052403;28;20048;-72
2024/01/13 00:37:44;;;;;;;29.77;19.05;;;;;;;0.38;94.80;101886.19;5052897;28;20098;-72
2024/01/13 00:40:47;;;;;;;33.17;19.42;;;;;;;0.39;94.82;101894.75;5052573;28;20110;-73
2024/01/13 00:43:51;;;;;;;34.33;21.40;;;;;;;0.44;94.74;101893.06;5052351;28;20098;-72
2024/01/13 00:46:54;;;;;;;30.05;19.52;;;;;;;0.34;94.76;101881.81;5052980;28;20083;-72
2024/01/13 00:49:57;;;;;;;34.15;19.40;;;;;;;0.16;96.09;101879.03;5052850;28;20056;-72
2024/01/13 00:53:01;;;;;;;30.40;19.58;;;;;;;0.28;96.20;101871.44;5052799;28;20418;-72
2024/01/13 00:56:04;;;;;;;34.95;20.83;;;;;;;0.27;95.86;101856.88;5052409;28;20541;-72
2024/01/13 00:59:07;;;;;;;34.38;21.55;;;;;;;0.38;95.49;101850.16;5052128;28;20178;-72
2024/01/13 01:02:11;;;;;;;26.40;17.83;;;;;;;0.45;95.07;101851.94;5052039;28;20086;-72
2024/01/13 01:05:14;;;;;;;30.63;18.67;;;;;;;0.40;95.15;101852.72;5052619;28;20048;-72
2024/01/13 01:08:17;;;;;;;34.00;21.67;;;;;;;0.42;95.18;101840.75;5052626;28;20060;-72
2024/01/13 01:11:21;;;;;;;31.73;20.15;;;;;;;0.46;95.05;101839.94;5051380;28;20035;-72
2024/01/13 01:14:24;;;;;;;29.58;18.73;;;;;;;0.41;94.86;101841.56;5052252;28;20118;-72
2024/01/13 01:17:27;;;;;;;31.33;19.25;;;;;;;0.37;95.05;101839.81;5051384;28;20114;-72
2024/01/13 01:20:30;;;;;;;30.45;18.42;;;;;;;0.46;94.74;101839.94;5052197;28;20100;-72
2024/01/13 01:23:34;;;;;;;32.83;20.05;;;;;;;0.46;94.87;101834.78;5052158;28;20414;-72
2024/01/13 01:26:37;;;;;;;30.45;18.77;;;;;;;0.45;94.75;101833.94;5051129;28;20086;-72
2024/01/13 01:29:40;;;;;;;31.58;19.88;;;;;;;0.32;95.51;101831.19;5051815;28;20071;-72
2024/01/13 01:32:44;;;;;;;34.88;20.85;;;;;;;0.22;96.50;101830.22;5052498;28;20097;-72
2024/01/13 01:35:47;;;;;;;30.63;19.92;;;;;;;0.28;96.58;101814.00;5052122;28;20139;-72
2024/01/13 01:38:50;;;;;;;34.38;18.98;;;;;;;0.30;96.23;101822.59;5052205;28;20150;-72
2024/01/13 01:41:54;;;;;;;30.67;19.02;;;;;;;0.38;95.82;101809.00;5052016;28;20075;-72
2024/01/13 01:44:57;;;;;;;29.38;18.63;;;;;;;0.45;95.54;101812.47;5052232;28;20417;-72
2024/01/13 01:48:06;;;;;;;30.35;18.35;;;;;;;0.53;95.29;101815.97;5052386;28;20060;-72
2024/01/13 01:51:10;;;;;;;29.98;18.30;;;;;;;0.44;95.43;101816.75;5052194;28;20043;-72
2024/01/13 01:54:15;;;;;;;32.53;19.15;;;;;;;0.52;94.80;101801.41;5052046;28;20043;-72
2024/01/13 01:57:21;;;;;;;30.95;19.40;;;;;;;0.35;95.67;101800.34;5052163;28;20063;-72
2024/01/13 02:00:24;;;;;;;33.38;19.85;;;;;;;0.48;95.58;101807.38;5051929;28;20044;-72
2024/01/13 02:03:28;;;;;;;;;;;;;;;0.40;95.34;101798.69;5063161;28;20106;-72
2024/01/13 02:06:31;;;;;;;32.40;19.23;;;;;;;0.45;95.20;101804.75;5052111;28;20002;-72
2024/01/13 02:09:34;;;;;;;33.97;23.45;;;;;;;0.50;95.04;101797.94;5052226;28;20083;-72
2024/01/13 02:12:38;;;;;;;38.10;23.08;;;;;;;0.54;94.57;101791.09;5055565;28;20098;-72
2024/01/13 02:15:41;;;;;;;29.67;18.95;;;;;;;0.58;94.58;101788.59;5055193;28;20047;-72
2024/01/13 02:18:44;;;;;;;;;;;;;;;0.55;94.43;101777.41;5054624;28;20051;-72
2024/01/13 02:21:48;;;;;;;26.40;16.08;;;;;;;0.55;94.60;101778.25;5054720;28;19981;-72
2024/01/13 02:24:51;;;;;;;29.92;19.65;;;;;;;0.49;95.58;101787.63;5054464;28;20055;-72
2024/01/13 02:27:54;;;;;;;29.05;19.27;;;;;;;0.44;95.45;101790.16;5054879;28;20415;-72
2024/01/13 02:30:58;;;;;;;29.70;19.02;;;;;;;0.44;95.65;101787.56;5055304;28;20040;-72
2024/01/13 02:34:01;;;;;;;34.70;19.42;;;;;;;0.49;95.18;101788.50;5055400;28;20044;-72
2024/01/13 02:37:04;;;;;;;30.75;18.92;;;;;;;0.50;95.38;101789.34;5054293;28;20056;-72
2024/01/13 02:40:09;;;;;;;31.48;18.98;;;;;;;0.45;95.95;101794.47;5054935;28;20067;-72
2024/01/13 02:43:12;;;;;;;32.30;19.55;;;;;;;0.54;95.37;101797.09;5055044;28;20048;-72
2024/01/13 02:46:15;;;;;;;;;;;;;;;0.49;95.57;101788.50;5054812;28;20132;-72
2024/01/13 02:49:18;;;;;;;30.73;19.23;;;;;;;0.44;95.96;101779.84;5054831;28;19928;-72
2024/01/13 02:52:21;;;;;;;33.20;20.27;;;;;;;0.32;96.64;101780.63;5055028;28;20075;-72
2024/01/13 02:55:25;;;;;;;33.47;21.08;;;;;;;0.44;96.48;101785.84;5055081;28;20037;-72
2024/01/13 02:58:28;;;;;;;30.60;19.33;;;;;;;0.51;95.99;101781.66;5054764;28;20048;-72
2024/01/13 03:01:31;;;;;;;33.72;20.85;;;;;;;0.50;95.87;101779.91;5054635;28;20106;-72
2024/01/13 03:04:35;;;;;;;29.05;19.58;;;;;;;0.58;95.75;101777.44;5054954;28;20183;-73
2024/01/13 03:07:41;;;;;;;32.55;20.90;;;;;;;0.63;95.45;101763.72;5054658;28;20060;-73
2024/01/13 03:10:44;;;;;;;36.50;22.73;;;;;;;0.66;95.13;101756.03;5054607;28;20098;-73
2024/01/13 03:13:47;;;;;;;33.83;20.05;;;;;;;0.49;95.78;101757.63;5054634;28;20047;-73
2024/01/13 03:16:50;;;;;;;33.10;20.35;;;;;;;0.60;95.19;101755.13;5054578;28;20043;-73
2024/01/13 03:19:54;;;;;;;;;;;;;;;0.62;95.33;101754.28;5054944;28;20043;-73
2024/01/13 03:22:57;;;;;;;29.73;19.38;;;;;;;0.63;95.27;101756.00;5052965;28;20539;-73
2024/01/13 03:26:00;;;;;;;32.03;19.50;;;;;;;0.66;94.85;101756.03;5052670;28;20052;-73
2024/01/13 03:29:04;;;;;;;32.03;19.20;;;;;;;0.62;95.23;101759.44;5053271;28;20095;-73
2024/01/13 03:32:07;;;;;;;31.58;20.60;;;;;;;0.65;94.99;101748.31;5054306;28;20529;-73
2024/01/13 03:35:11;;;;;;;34.28;20.55;;;;;;;0.61;95.01;101746.56;5054363;28;20135;-73
2024/01/13 03:38:14;;;;;;;32.97;20.08;;;;;;;0.58;96.06;101741.41;5053719;28;20187;-73
2024/01/13 03:41:20;;;;;;;32.70;20.38;;;;;;;0.60;96.30;101729.38;5053814;28;20048;-72
2024/01/13 03:44:23;;;;;;;31.13;20.23;;;;;;;0.60;96.06;101719.09;5052890;28;20457;-72
2024/01/13 03:47:26;;;;;;;;;;;;;;;0.63;95.46;101709.66;5053215;28;20044;-72
2024/01/13 03:50:29;;;;;;;29.85;18.15;;;;;;;0.68;95.32;101707.16;5052768;28;19920;-72
2024/01/13 03:53:32;;;;;;;36.05;20.23;;;;;;;0.72;95.40;101708.88;5053686;28;20051;-72
2024/01/13 03:56:36;;;;;;;30.45;19.90;;;;;;;0.66;96.09;101693.41;5053709;28;20048;-72
2024/01/13 03:59:39;;;;;;;34.67;20.67;;;;;;;0.69;95.51;101691.69;5053762;28;20411;-72
2024/01/13 04:02:42;;;;;;;35.38;19.67;;;;;;;0.65;95.27;101697.69;5053378;28;20545;-73
2024/01/13 04:05:46;;;;;;;31.05;19.65;;;;;;;0.68;95.59;101697.72;5053482;28;20090;-73
2024/01/13 04:08:49;;;;;;;34.90;20.45;;;;;;;0.77;95.27;101698.63;5053512;28;20572;-73
2024/01/13 04:11:52;;;;;;;31.17;19.45;;;;;;;0.78;95.11;101692.63;5053376;28;20102;-72
2024/01/13 04:14:56;;;;;;;30.77;17.98;;;;;;;0.74;95.04;101683.16;5053228;28;20098;-72
2024/01/13 04:17:59;;;;;;;33.92;20.95;;;;;;;0.76;94.91;101677.16;5051405;28;20606;-72
2024/01/13 04:21:03;;;;;;;28.50;18.33;;;;;;;0.80;95.06;101665.16;5053184;28;20044;-72
2024/01/13 04:24:06;;;;;;;31.45;19.02;;;;;;;0.67;95.32;101666.78;5053112;28;20415;-72
2024/01/13 04:27:09;;;;;;;32.80;19.50;;;;;;;0.73;95.16;101673.69;5052879;28;20040;-72
2024/01/13 04:30:12;;;;;;;33.92;19.80;;;;;;;0.64;95.76;101667.66;5053338;28;20052;-72
2024/01/13 04:33:15;;;;;;;32.03;19.85;;;;;;;0.63;96.39;101676.22;5052408;28;20047;-73
2024/01/13 04:36:19;;;;;;;27.92;18.35;;;;;;;0.69;96.41;101672.81;5056460;28;20059;-72
2024/01/13 04:39:22;;;;;;;;;;;;;;;0.72;95.86;101666.84;5073267;28;20044;-72
2024/01/13 04:42:26;;;;;;;28.73;17.40;;;;;;;0.67;96.11;101669.38;5072785;28;20540;-72
2024/01/13 04:45:30;;;;;;;32.90;19.75;;;;;;;0.73;96.35;101668.56;5072835;28;20113;-73
2024/01/13 04:48:33;;;;;;;28.30;18.63;;;;;;;0.81;96.12;101661.75;5072010;28;20059;-72
2024/01/13 04:51:36;;;;;;;29.83;19.83;;;;;;;0.79;95.39;101654.00;5072265;28;20101;-72
2024/01/13 04:54:40;;;;;;;;;;;;;;;0.75;95.71;101662.56;5070570;28;20501;-72
2024/01/13 04:57:43;;;;;;;30.37;19.30;;;;;;;0.75;95.62;101654.00;5072774;28;19918;-72
2024/01/13 05:00:47;;;;;;;30.13;18.67;;;;;;;0.82;95.40;101656.59;5071529;28;20052;-73
2024/01/13 05:03:50;;;;;;;33.55;20.85;;;;;;;0.75;95.41;101651.41;5072006;28;20059;-72
2024/01/13 05:06:54;;;;;;;30.35;18.83;;;;;;;0.78;95.63;101651.44;5072681;28;20102;-72
2024/01/13 05:09:58;;;;;;;28.63;19.15;;;;;;;0.74;95.78;101640.25;5071894;28;20117;-72
2024/01/13 05:13:01;;;;;;;29.25;18.20;;;;;;;0.81;95.80;101636.00;5072236;28;20047;-72
2024/01/13 05:16:05;;;;;;;31.98;18.58;;;;;;;0.78;95.84;101646.28;5070657;28;20098;-72
2024/01/13 05:19:10;;;;;;;30.02;18.67;;;;;;;0.78;95.49;101641.13;5059791;28;20051;-71
2024/01/13 05:22:14;;;;;;;34.40;21.05;;;;;;;0.76;95.88;101633.38;5069065;28;20085;-72
2024/01/13 05:25:18;;;;;;;32.15;19.35;;;;;;;0.73;95.68;101627.38;5070354;28;20043;-72
2024/01/13 05:28:21;;;;;;;30.15;18.63;;;;;;;0.78;95.72;101623.13;5069382;28;20097;-72
2024/01/13 05:31:24;;;;;;;28.02;19.17;;;;;;;0.75;96.05;101625.66;5072424;28;20043;-72
2024/01/13 05:34:28;;;;;;;;;;;;;;;0.81;95.87;101618.00;5072911;28;20089;-72
2024/01/13 05:37:30;;;;;;;28.58;17.77;;;;;;;0.86;95.54;101622.31;5072383;28;20114;-72
2024/01/13 05:40:34;;;;;;;28.63;18.23;;;;;;;0.73;95.92;101627.38;5072461;28;20043;-72
2024/01/13 05:43:38;;;;;;;25.80;17.15;;;;;;;0.87;95.25;101618.03;5071509;28;20102;-71
2024/01/13 05:46:41;;;;;;;24.23;16.55;;;;;;;0.86;95.78;101621.44;5075676;28;20048;-71
2024/01/13 05:49:44;;;;;;;32.25;16.95;;;;;;;0.82;95.57;101619.69;5075808;28;20063;-72
2024/01/13 05:52:48;;;;;;;25.48;17.00;;;;;;;0.81;95.66;101621.41;5075780;28;20040;-72
2024/01/13 05:55:51;;;;;;;30.52;18.63;;;;;;;0.82;95.71;101622.28;5076041;28;20506;-72
2024/01/13 05:58:54;;;;;;;28.67;17.42;;;;;;;0.87;95.66;101615.44;5076013;28;20043;-72
2024/01/13 06:01:57;;;;;;;29.20;17.58;;;;;;;0.90;95.28;101616.31;5075526;28;20102;-75
2024/01/13 06:05:01;;;;;;;32.05;19.15;;;;;;;0.89;95.38;101606.88;5075890;28;20042;-72
2024/01/13 06:08:04;;;;;;;29.38;18.08;;;;;;;0.81;95.45;101600.81;5075745;28;20145;-72
2024/01/13 06:11:08;;;;;;;28.45;19.02;;;;;;;0.89;95.08;101603.41;5075718;28;20449;-72
2024/01/13 06:14:11;;;;;;;27.65;18.00;;;;;;;0.85;95.36;101596.53;5075616;28;20062;-71
2024/01/13 06:17:14;;;;;;;32.58;20.63;;;;;;;0.86;95.26;101593.09;5075290;28;20055;-71
2024/01/13 06:20:18;;;;;;;31.58;20.33;;;;;;;0.85;94.99;101586.25;5075141;28;20138;-72
2024/01/13 06:23:21;;;;;;;29.02;20.02;;;;;;;0.76;95.32;101586.19;5075220;28;20043;-72
2024/01/13 06:26:26;;;;;;;28.23;17.92;;;;;;;0.79;95.90;101586.22;5075442;28;20102;-72
2024/01/13 06:29:29;;;;;;;26.67;17.85;;;;;;;0.82;95.82;101588.81;5075448;28;20042;-72
2024/01/13 06:32:33;;;;;;;34.75;21.85;;;;;;;0.86;95.13;101593.09;5075420;28;20043;-72
2024/01/13 06:35:36;;;;;;;33.33;20.70;;;;;;;0.85;94.99;101581.94;5075361;28;20071;-72
2024/01/13 06:38:39;;;;;;;31.77;20.10;;;;;;;0.91;94.24;101581.97;5074985;28;20047;-72
2024/01/13 06:41:43;;;;;;;30.85;19.80;;;;;;;0.95;94.41;101590.56;5074738;28;20194;-72
2024/01/13 06:44:46;;;;;;;;;;;;;;;0.99;94.17;101594.03;5075309;28;20043;-72
2024/01/13 06:47:49;;;;;;;29.25;18.80;;;;;;;0.96;94.45;101607.78;5075143;28;19924;-72
2024/01/13 06:50:53;;;;;;;32.47;19.35;;;;;;;0.94;94.22;101591.44;5074920;28;20035;-72
2024/01/13 06:53:56;;;;;;;32.92;20.90;;;;;;;0.96;94.20;101583.69;5074787;28;20128;-72
2024/01/13 06:57:00;;;;;;;34.60;20.48;;;;;;;0.81;95.06;101587.94;5073950;28;20124;-72
2024/01/13 07:00:07;;;;;;;28.77;18.17;;;;;;;0.88;95.37;101581.09;5074916;28;20455;-72
2024/01/13 07:03:10;;;;;;;30.65;18.45;;;;;;;0.89;95.12;101580.25;5074257;28;20094;-72
2024/01/13 07:06:13;;;;;;;26.15;18.27;;;;;;;0.96;94.62;101579.44;5074278;28;20043;-72
2024/01/13 07:09:17;;;;;;;30.73;18.38;;;;;;;0.97;94.83;101580.28;5074513;28;20097;-72
2024/01/13 07:12:20;;;;;;;33.25;20.25;;;;;;;0.97;94.72;101581.16;5074435;28;20075;-71
2024/01/13 07:15:23;;;;;;;27.15;18.17;;;;;;;0.95;94.62;101593.16;5074615;28;20129;-71
2024/01/13 07:18:27;;;;;;;31.60;19.40;;;;;;;0.95;94.77;101587.16;5074561;28;20043;-74
2024/01/13 07:21:30;;;;;;;28.77;18.17;;;;;;;0.91;94.96;101581.97;5074473;28;20043;-71
2024/01/13 07:24:33;;;;;;;32.95;20.15;;;;;;;0.76;95.65;101588.78;5074629;28;20173;-71
2024/01/13 07:27:37;;;;;;;31.67;19.58;;;;;;;0.83;95.65;101593.97;5074429;28;20042;-71
2024/01/13 07:30:40;;;;;;;;;;;;;;;0.81;95.73;101605.13;5074769;28;20094;-71
2024/01/13 07:33:43;;;;;;;31.27;18.65;;;;;;;0.80;96.03;101599.09;5073436;28;20385;-70
2024/01/13 07:36:47;;;;;;;31.40;18.80;;;;;;;0.73;96.43;101594.75;5081729;28;20113;-72
2024/01/13 07:39:50;;;;;;;32.13;20.25;;;;;;;0.85;95.80;101596.53;5094091;28;20089;-71
2024/01/13 07:42:54;;;;;;;;;;;;;;;0.89;95.55;101598.28;5094526;28;20083;-71
2024/01/13 07:45:58;;;;;;;31.98;20.35;;;;;;;0.94;95.36;101583.72;5092874;28;19980;-71
2024/01/13 07:49:02;;;;;;;30.20;18.65;;;;;;;0.94;94.83;101596.59;5092989;28;20095;-71
2024/01/13 07:52:06;;;;;;;28.65;17.85;;;;;;;1.00;94.87;101596.63;5092622;28;20047;-70
2024/01/13 07:55:14;;;;;;;29.52;18.52;;;;;;;0.95;94.96;101582.00;5080708;28;20047;-70
2024/01/13 07:58:18;;;;;;;30.50;19.25;;;;;;;0.97;94.97;101570.84;5071667;28;20094;-71
2024/01/13 08:01:32;;;;;;;51.30;33.30;;;;;;;0.89;95.44;101572.53;5072669;28;20051;-71
2024/01/13 08:04:36;;;;;;;68.75;44.20;;;;;;;0.93;95.56;101579.44;5072638;28;20043;-71
2024/01/13 08:07:39;;;;;;;;;;;;;;;0.98;94.83;101574.28;5072011;28;20047;-71
2024/01/13 08:10:42;;;;;;;38.30;25.73;;;;;;;0.98;94.79;101571.72;5072018;28;19920;-71
2024/01/13 08:13:45;;;;;;;44.35;27.08;;;;;;;0.99;95.12;101574.31;5071701;28;20052;-70
2024/01/13 08:16:49;;;;;;;33.33;21.10;;;;;;;1.03;95.19;101562.28;5070677;28;20051;-71
2024/01/13 08:19:52;;;;;;;32.15;19.52;;;;;;;1.06;95.09;101555.44;5069920;28;20044;-71
2024/01/13 08:22:55;;;;;;;28.67;18.55;;;;;;;1.04;95.21;101545.97;5071244;28;20044;-73
2024/01/13 08:26:06;;;;;;;32.60;19.80;;;;;;;0.95;94.17;101541.66;5069579;28;20469;-72
2024/01/13 08:29:10;;;;;;;30.15;18.35;;;;;;;1.08;94.35;101547.69;5058572;28;20047;-71
2024/01/13 08:32:13;;;;;;;27.70;16.80;;;;;;;1.16;94.34;101554.59;5071912;28;20044;-70
2024/01/13 08:35:16;;;;;;;23.85;16.25;;;;;;;1.10;93.41;101554.59;5071942;28;20043;-70
2024/01/13 08:38:20;;;;;;;26.23;17.08;;;;;;;1.06;93.97;101550.28;5071941;28;20055;-72
2024/01/13 08:41:23;;;;;;;23.70;15.63;;;;;;;1.14;93.31;101540.84;5071676;28;20162;-71
2024/01/13 08:44:27;;;;;;;20.05;15.05;;;;;;;1.14;91.71;101527.97;5071881;28;20059;-73
2024/01/13 08:47:31;;;;;;;20.23;14.43;;;;;;;1.11;90.16;101533.09;5070930;28;20533;-73
2024/01/13 08:50:35;;;;;;;18.98;13.75;;;;;;;0.99;89.36;101535.66;5071591;28;20051;-72
2024/01/13 08:53:38;;;;;;;16.05;11.95;;;;;;;0.91;89.35;101530.47;5071695;28;20136;-72
2024/01/13 08:56:42;;;;;;;21.13;13.35;;;;;;;1.00;88.98;101524.50;5072070;28;20043;-73
2024/01/13 08:59:45;;;;;;;22.55;16.15;;;;;;;1.00;89.30;101539.09;5072014;28;20194;-73
2024/01/13 09:02:49;;;;;;;;;;;;;;;0.89;89.43;101541.63;5072313;28;20559;-73
2024/01/13 09:05:51;;;;;;;25.85;14.90;;;;;;;0.89;89.80;101519.34;5072092;28;20423;-73
2024/01/13 09:08:55;;;;;;;21.15;14.82;;;;;;;0.99;89.56;101502.19;5071932;28;20090;-73
2024/01/13 09:11:58;;;;;;;;;;;;;;;0.95;88.80;101490.13;5072080;28;20035;-73
2024/01/13 09:15:01;;;;;;;17.60;12.45;;;;;;;1.07;88.63;101467.00;5070170;28;19919;-73
2024/01/13 09:18:06;;;;;;;19.58;13.38;;;;;;;1.20;88.48;101456.72;5071562;28;20043;-73
2024/01/13 09:21:11;;;;;;;18.60;12.15;;;;;;;1.12;88.52;101457.56;5074440;28;20098;-73
2024/01/13 09:24:16;;;;;;;21.15;12.93;;;;;;;1.24;88.05;101464.44;5074637;28;20075;-73
2024/01/13 09:27:20;;;;;;;18.83;13.23;;;;;;;1.19;87.71;101478.19;5075643;28;20101;-73
2024/01/13 09:30:23;;;;;;;24.05;15.20;;;;;;;1.12;88.81;101498.78;5075464;28;20150;-73
2024/01/13 09:33:26;;;;;;;21.00;14.35;;;;;;;1.30;88.43;101492.78;5075578;28;20046;-74
2024/01/13 09:36:29;;;;;;;18.02;13.90;;;;;;;1.49;87.78;101496.25;5074910;28;20044;-73
2024/01/13 09:39:33;;;;;;;20.73;14.80;;;;;;;1.34;87.06;101503.94;5076055;28;20048;-74
2024/01/13 09:42:52;;;;;;;18.00;13.13;;;;;;;1.21;86.78;101486.75;5075565;28;20067;-75
2024/01/13 09:45:55;;;;;;;15.25;11.73;;;;;;;1.33;86.38;101491.94;5075319;28;20060;-73
2024/01/13 09:48:59;;;;;;;;;;;;;;;1.26;86.35;101495.38;5074731;28;20109;-73
2024/01/13 09:52:05;;;;;;;19.50;14.68;;;;;;;1.15;86.74;101487.63;5074902;28;19920;-73
2024/01/13 09:55:12;;;;;;;17.60;13.93;;;;;;;1.17;86.38;101475.59;5074320;28;20443;-73
2024/01/13 09:58:16;;;;;;;18.40;11.65;;;;;;;1.13;86.75;101473.88;5075108;28;20063;-73
2024/01/13 10:01:19;;;;;;;15.65;11.60;;;;;;;1.22;86.47;101473.91;5075098;28;20047;-73
2024/01/13 10:04:22;;;;;;;16.95;13.13;;;;;;;1.19;86.06;101467.88;5074977;28;20047;-73
2024/01/13 10:07:28;;;;;;;;;;;;;;;1.20;86.10;101467.88;5075309;28;20059;-73
2024/01/13 10:10:34;;;;;;;17.85;15.75;;;;;;;1.36;86.22;101442.97;5074993;28;20376;-73
2024/01/13 10:13:38;;;;;;;18.70;16.08;;;;;;;1.52;85.39;101430.97;5063140;28;20424;-73
2024/01/13 10:16:41;;;;;;;16.23;13.50;;;;;;;1.56;84.64;101412.03;5074933;28;20043;-73
2024/01/13 10:19:45;;;;;;;16.65;13.10;;;;;;;1.57;83.92;101399.16;5073833;28;20051;-73
2024/01/13 10:22:49;;;;;;;17.42;12.95;;;;;;;1.54;84.19;101393.16;5073419;28;20094;-73
2024/01/13 10:25:52;;;;;;;;;;;;;;;1.47;84.26;101387.16;5073297;28;20047;-73
2024/01/13 10:28:56;;;;;;;14.95;11.75;;;;;;;1.59;84.46;101404.31;5074191;28;19918;-72
2024/01/13 10:32:01;;;;;;;17.90;11.65;;;;;;;1.67;83.60;101427.53;5073654;28;20448;-75
2024/01/13 10:35:08;;;;;;;17.77;11.57;;;;;;;1.46;83.63;101431.81;5072645;28;20055;-75
2024/01/13 10:38:11;;;;;;;15.93;11.90;;;;;;;1.31;84.25;101445.56;5074103;28;20040;-75
2024/01/13 10:41:15;;;;;;;14.30;10.50;;;;;;;1.31;84.54;101455.03;5072681;28;20459;-75
2024/01/13 10:44:23;;;;;;;15.73;11.43;;;;;;;1.30;84.71;101442.97;5073998;28;20421;-75
2024/01/13 10:47:34;;;;;;;13.63;9.25;;;;;;;1.63;85.33;101430.09;5074234;28;20530;-69
2024/01/13 10:50:39;;;;;;;10.82;8.85;;;;;;;2.09;82.41;101439.47;5074308;28;20051;-70
2024/01/13 10:53:45;;;;;;;13.05;8.85;;;;;;;1.36;82.84;101448.13;5074278;28;20048;-72
2024/01/13 10:56:55;;;;;;;12.05;9.73;;;;;;;1.10;83.13;101454.13;5074346;28;20413;-72
2024/01/13 10:59:59;;;;;;;14.05;8.63;;;;;;;0.98;83.96;101454.09;5073348;28;20043;-72
2024/01/13 11:03:04;;;;;;;15.48;11.57;;;;;;;1.06;83.04;101449.84;5073905;28;20137;-71
2024/01/13 11:06:07;;;;;;;22.42;15.77;;;;;;;1.01;82.94;101453.25;5073838;28;20519;-71
2024/01/13 11:09:12;;;;;;;;;;;;;;;1.02;83.32;101437.81;5074138;28;20547;-73
2024/01/13 11:12:35;;;;;;;16.95;12.55;;;;;;;1.06;82.35;101436.97;5073906;28;19919;-71
2024/01/13 11:15:43;;;;;;;15.35;11.23;;;;;;;1.02;81.86;101424.06;5072104;28;20425;-71
2024/01/13 11:18:52;;;;;;;20.00;14.38;;;;;;;0.93;82.40;101419.78;5073009;28;20071;-72
2024/01/13 11:21:55;;;;;;;17.13;12.27;;;;;;;1.02;81.62;101414.63;5073549;28;20105;-71
2024/01/13 11:24:58;;;;;;;15.32;11.55;;;;;;;1.04;81.05;101394.88;5072670;28;20106;-71
2024/01/13 11:28:02;;;;;;;16.85;13.90;;;;;;;1.08;81.16;101388.00;5073768;28;20046;-71
2024/01/13 11:31:05;;;;;;;22.40;16.48;;;;;;;1.14;80.82;101390.59;5073247;28;20047;-71
2024/01/13 11:34:13;;;;;;;;;;;;;;;1.13;80.31;101384.59;5074165;28;20212;-71
2024/01/13 11:37:16;;;;;;;12.40;10.50;;;;;;;1.27;80.11;101384.56;5073103;28;19923;-72
2024/01/13 11:40:20;;;;;;;20.67;15.25;;;;;;;1.23;79.40;101390.59;5072409;28;20071;-71
2024/01/13 11:43:26;;;;;;;16.50;12.90;;;;;;;1.12;79.72;101392.31;5072498;28;20211;-71
2024/01/13 11:46:35;;;;;;;15.25;12.27;;;;;;;1.02;80.51;101386.31;5072909;28;20074;-72
2024/01/13 11:49:47;;;;;;;15.85;11.82;;;;;;;1.20;80.42;101382.00;5072014;28;20165;-73
2024/01/13 11:52:51;;;;;;;13.38;10.38;;;;;;;1.33;79.46;101382.00;5073054;28;20039;-74
2024/01/13 11:55:55;;;;;;;13.50;11.63;;;;;;;1.41;79.12;101374.28;5073038;28;20079;-73
2024/01/13 11:59:01;;;;;;;15.07;12.10;;;;;;;1.30;78.83;101357.94;5071472;28;20094;-73
2024/01/13 12:02:05;;;;;;;12.93;10.90;;;;;;;1.16;79.52;101356.25;5071423;28;20129;-72
2024/01/13 12:05:08;;;;;;;13.23;10.57;;;;;;;1.47;79.11;101348.50;5070308;28;20463;-72
2024/01/13 12:08:12;;;;;;;24.60;16.48;;;;;;;1.16;79.36;101343.38;5071205;28;20043;-72
2024/01/13 12:11:15;;;;;;;18.88;14.70;;;;;;;1.29;79.46;101348.53;5070508;28;20524;-72
2024/01/13 12:14:23;;;;;;;17.48;14.05;;;;;;;1.11;79.76;101344.22;5071416;28;20075;-72
2024/01/13 12:17:27;;;;;;;17.23;13.20;;;;;;;1.11;80.58;101337.34;5071198;28;20448;-76
2024/01/13 12:20:35;;;;;;;15.18;11.80;;;;;;;1.01;80.59;101330.50;5068755;28;20417;-70
2024/01/13 12:23:42;;;;;;;17.15;14.25;;;;;;;0.93;80.41;101316.78;5070844;28;20134;-71
2024/01/13 12:26:46;;;;;;;16.27;14.15;;;;;;;0.94;80.62;101321.06;5070974;28;20055;-70
2024/01/13 12:29:56;;;;;;;16.83;13.25;;;;;;;1.00;80.68;101305.59;5072325;28;20079;-72
2024/01/13 12:33:04;;;;;;;14.18;11.95;;;;;;;1.00;80.42;101303.03;5071729;28;20042;-71
2024/01/13 12:36:08;;;;;;;15.98;12.27;;;;;;;1.09;80.25;101295.31;5071914;28;20062;-77
2024/01/13 12:39:16;;;;;;;17.67;11.82;;;;;;;1.24;79.55;101290.97;5071877;28;20117;-72
2024/01/13 12:42:20;;;;;;;14.00;11.23;;;;;;;1.25;79.80;101290.13;5071265;28;20054;-65
2024/01/13 12:45:26;;;;;;;;;;;;;;;1.39;79.14;101286.66;5071128;28;20046;-71
2024/01/13 12:48:29;;;;;;;18.23;12.18;;;;;;;1.43;78.86;101290.06;5071068;28;19926;-74
2024/01/13 12:51:33;;;;;;;20.15;13.35;;;;;;;1.35;79.41;101274.63;5071343;28;20051;-72
2024/01/13 12:54:38;;;;;;;18.95;12.93;;;;;;;1.57;78.60;101275.44;5069566;28;20577;-71
2024/01/13 12:57:41;;;;;;;25.35;15.77;;;;;;;1.39;79.40;101288.38;5069216;28;20051;-70
2024/01/13 13:00:45;;;;;;;16.70;12.48;;;;;;;1.18;79.78;101276.38;5070038;28;20035;-69
2024/01/13 13:03:48;;;;;;;17.02;12.30;;;;;;;1.16;80.41;101266.09;5069665;28;20598;-70
2024/01/13 13:06:51;;;;;;;17.60;13.05;;;;;;;1.03;80.64;101266.97;5071123;28;20097;-71
2024/01/13 13:09:58;;;;;;;14.75;11.82;;;;;;;1.02;80.74;101252.38;5070309;28;20056;-70
2024/01/13 13:13:06;;;;;;;18.45;11.18;;;;;;;1.25;79.84;101248.91;5070976;28;20044;-70
2024/01/13 13:16:09;;;;;;;14.85;11.82;;;;;;;1.07;80.36;101239.50;5071190;28;20083;-73
2024/01/13 13:19:13;;;;;;;15.40;12.20;;;;;;;1.12;80.32;101230.91;5070645;28;20047;-71
2024/01/13 13:22:18;;;;;;;14.60;11.02;;;;;;;1.28;79.46;101210.25;5070860;28;20459;-72
2024/01/13 13:25:22;;;;;;;16.67;10.68;;;;;;;1.35;79.50;101193.91;5070920;28;20448;-69
2024/01/13 13:28:25;;;;;;;14.10;10.75;;;;;;;1.37;79.30;101205.06;5070490;28;20040;-70
2024/01/13 13:31:28;;;;;;;13.40;9.95;;;;;;;1.17;79.03;101198.25;5065114;28;20051;-71
2024/01/13 13:34:33;;;;;;;17.35;10.07;;;;;;;1.22;79.22;101202.56;5070222;28;20158;-72
2024/01/13 13:37:36;;;;;;;12.77;10.57;;;;;;;1.01;80.40;101190.56;5070975;28;20051;-71
2024/01/13 13:40:41;;;;;;;12.82;9.55;;;;;;;1.11;80.68;101187.97;5070990;28;20047;-73
2024/01/13 13:43:44;;;;;;;14.95;11.40;;;;;;;1.10;81.47;101178.53;5070102;28;20170;-71
2024/01/13 13:46:47;;;;;;;15.88;10.98;;;;;;;1.05;82.72;101172.53;5071127;28;20090;-72
2024/01/13 13:49:51;;;;;;;17.20;12.85;;;;;;;0.92;83.42;101170.84;5070035;28;20194;-66
2024/01/13 13:52:54;;;;;;;45.53;33.10;;;;;;;1.02;83.95;101164.84;5070908;28;20415;-78
2024/01/13 13:55:57;;;;;;;39.33;28.73;;;;;;;1.05;83.72;101167.38;5071009;28;20109;-68
2024/01/13 13:59:00;;;;;;;47.22;32.58;;;;;;;1.11;83.70;101159.63;5071488;28;20182;-67
2024/01/13 14:02:04;;;;;;;43.65;29.50;;;;;;;1.09;84.18;101163.94;5071254;28;20048;-70
2024/01/13 14:05:08;;;;;;;67.10;41.50;;;;;;;1.08;84.29;101154.47;5071081;28;20117;-71
2024/01/13 14:08:12;;;;;;;30.40;16.70;;;;;;;1.53;85.44;101160.34;5074880;28;20119;-74
2024/01/13 14:11:15;;;;;;;56.20;34.13;;;;;;;1.97;86.76;101166.94;5074605;28;20039;-69
2024/01/13 14:14:19;;;;;;;64.20;36.03;;;;;;;2.08;83.00;101175.47;5074311;28;20132;-68